createdAt,value
2019-04-11T00:00:53.626Z,47.95
2019-04-11T00:03:23.039Z,47.76
2019-04-11T00:05:52.906Z,47.88
2019-04-11T00:08:22.325Z,47.89
2019-04-11T00:10:51.784Z,47.94
2019-04-11T00:13:25.176Z,48.13
2019-04-11T00:15:52.962Z,48.15
2019-04-11T00:18:22.857Z,48.14
2019-04-11T00:20:52.811Z,48.13
2019-04-11T00:23:22.224Z,48.18
2019-04-11T00:25:51.756Z,48.15
2019-04-11T00:28:21.584Z,48.18
2019-04-11T00:30:51.115Z,48.36
2019-04-11T00:33:20.547Z,48.32
2019-04-11T00:35:50.239Z,48.36
2019-04-11T00:38:19.728Z,48.22
2019-04-11T00:40:49.213Z,48.27
2019-04-11T00:43:30.591Z,48.40
2019-04-11T00:45:49.814Z,48.32
2019-04-11T00:48:19.730Z,48.13
2019-04-11T00:50:49.631Z,48.08
2019-04-11T00:53:20.393Z,48.35
2019-04-11T00:55:49.951Z,48.19
2019-04-11T00:58:19.602Z,48.01
2019-04-11T01:00:49.448Z,48.06
2019-04-11T01:03:20.063Z,48.03
2019-04-11T01:05:49.946Z,48.03
2019-04-11T01:08:19.824Z,48.08
2019-04-11T01:10:49.759Z,48.22
2019-04-11T01:13:20.931Z,48.09
2019-04-11T01:15:58.696Z,48.09
2019-04-11T01:18:28.114Z,48.16
2019-04-11T01:20:57.716Z,48.34
2019-04-11T01:23:27.166Z,48.12
2019-04-11T01:25:56.982Z,47.99
2019-04-11T01:28:26.834Z,48.08
2019-04-11T01:31:01.095Z,48.02
2019-04-11T01:33:31.682Z,48.06
2019-04-11T01:36:01.200Z,47.84
2019-04-11T01:38:32.508Z,47.84
2019-04-11T01:41:02.432Z,47.96
2019-04-11T01:43:32.440Z,47.95
2019-04-11T01:46:02.220Z,47.79
2019-04-11T01:48:39.618Z,47.85
2019-04-11T01:51:09.642Z,47.68
2019-04-11T01:53:40.565Z,48.11
2019-04-11T01:56:10.074Z,48.16
2019-04-11T01:58:40.567Z,47.92
2019-04-11T02:01:20.957Z,47.99
2019-04-11T02:04:12.029Z,47.92
2019-04-11T02:06:42.451Z,47.93
2019-04-11T02:09:13.780Z,47.87
2019-04-11T02:11:43.535Z,47.79
2019-04-11T02:14:16.417Z,47.83
2019-04-11T02:16:45.276Z,47.83
2019-04-11T02:19:14.800Z,47.76
2019-04-11T02:21:44.346Z,47.71
2019-04-11T02:24:25.896Z,47.64
2019-04-11T02:27:11.916Z,47.61
2019-04-11T02:29:42.385Z,47.53
2019-04-11T02:32:12.700Z,47.54
2019-04-11T02:34:43.758Z,47.47
2019-04-11T02:37:15.227Z,47.36
2019-04-11T02:39:44.736Z,47.40
2019-04-11T02:42:14.884Z,47.32
2019-04-11T02:44:59.294Z,47.35
2019-04-11T02:47:22.033Z,47.31
2019-04-11T02:49:47.701Z,47.22
2019-04-11T02:52:17.727Z,47.18
2019-04-11T02:54:49.301Z,47.13
2019-04-11T02:57:18.801Z,47.06
2019-04-11T02:59:49.002Z,47.17
2019-04-11T03:02:19.510Z,47.15
2019-04-11T03:04:50.939Z,47.03
2019-04-11T03:07:20.614Z,47.07
2019-04-11T03:09:51.034Z,47.07
2019-04-11T03:12:21.687Z,47.03
2019-04-11T03:15:09.220Z,46.95
2019-04-11T03:17:28.674Z,46.90
2019-04-11T03:20:08.350Z,46.83
2019-04-11T03:22:26.815Z,46.92
2019-04-11T03:24:58.397Z,46.87
2019-04-11T03:27:30.387Z,46.84
2019-04-11T03:30:00.109Z,46.82
2019-04-11T03:33:08.009Z,46.78
2019-04-11T03:37:53.918Z,46.71
2019-04-11T03:40:22.569Z,46.73
2019-04-11T03:42:52.397Z,46.69
2019-04-11T03:45:30.869Z,46.69
2019-04-11T03:47:56.122Z,46.53
2019-04-11T03:50:15.331Z,46.45
2019-04-11T03:52:40.793Z,46.57
2019-04-11T03:55:11.144Z,46.51
2019-04-11T03:57:41.732Z,46.53
2019-04-11T04:00:13.093Z,46.67
2019-04-11T04:02:44.402Z,46.66
2019-04-11T04:05:15.306Z,46.30
2019-04-11T04:07:46.210Z,46.50
2019-04-11T04:10:18.424Z,46.36
2019-04-11T04:12:48.092Z,46.27
2019-04-11T04:15:54.069Z,46.29
2019-04-11T04:18:31.766Z,46.23
2019-04-11T04:21:33.248Z,46.39
2019-04-11T04:24:25.268Z,46.22
2019-04-11T04:26:56.776Z,46.09
2019-04-11T04:29:28.816Z,45.83
2019-04-11T04:31:59.343Z,45.66
2019-04-11T04:34:28.948Z,44.22
2019-04-11T04:36:59.970Z,44.27
2019-04-11T04:39:31.242Z,44.26
2019-04-11T04:42:08.222Z,44.91
2019-04-11T04:44:33.314Z,44.80
2019-04-11T04:47:15.627Z,44.82
2019-04-11T04:49:34.933Z,44.79
2019-04-11T04:52:06.090Z,44.79
2019-04-11T04:54:36.595Z,44.81
2019-04-11T04:57:08.709Z,44.75
2019-04-11T04:59:39.982Z,44.73
2019-04-11T05:02:10.956Z,44.62
2019-04-11T05:04:40.485Z,44.48
2019-04-11T05:07:11.626Z,44.58
2019-04-11T05:09:42.658Z,44.50
2019-04-11T05:12:12.143Z,44.52
2019-04-11T05:14:41.600Z,44.57
2019-04-11T05:17:11.092Z,44.58
2019-04-11T05:19:40.527Z,43.16
2019-04-11T05:22:10.555Z,44.02
2019-04-11T05:24:41.047Z,44.32
2019-04-11T05:27:10.555Z,44.37
2019-04-11T05:29:40.051Z,44.52
2019-04-11T05:32:09.517Z,44.66
2019-04-11T05:34:39.347Z,44.81
2019-04-11T05:37:09.068Z,44.69
2019-04-11T05:39:38.547Z,44.58
2019-04-11T05:42:09.194Z,44.45
2019-04-11T05:44:40.374Z,44.68
2019-04-11T05:47:14.553Z,44.53
2019-04-11T05:49:55.003Z,44.65
2019-04-11T05:52:27.398Z,44.33
2019-04-11T05:54:58.529Z,44.69
2019-04-11T05:57:35.191Z,44.38
2019-04-11T05:59:59.311Z,44.68
2019-04-11T06:02:33.394Z,44.52
2019-04-11T06:05:17.478Z,44.25
2019-04-11T06:08:06.405Z,44.36
2019-04-11T06:10:57.827Z,44.28
2019-04-11T06:13:36.433Z,44.33
2019-04-11T06:16:06.396Z,44.35
2019-04-11T06:19:04.079Z,44.39
2019-04-11T06:21:37.159Z,44.30
2019-04-11T06:24:40.629Z,44.37
2019-04-11T06:27:22.777Z,44.77
2019-04-11T06:30:06.063Z,44.97
2019-04-11T06:32:54.226Z,44.90
2019-04-11T06:35:30.465Z,44.93
2019-04-11T06:38:18.574Z,44.95
2019-04-11T06:40:55.412Z,44.96
2019-04-11T06:43:42.580Z,44.86
2019-04-11T06:46:48.577Z,44.95
2019-04-11T06:49:42.582Z,45.00
2019-04-11T06:52:12.768Z,44.93
2019-04-11T06:54:59.499Z,44.84
2019-04-11T06:57:30.019Z,44.79
2019-04-11T06:59:59.538Z,44.78
2019-04-11T07:02:29.975Z,44.81
2019-04-11T07:05:02.921Z,44.81
2019-04-11T07:07:35.662Z,44.85
2019-04-11T07:10:07.024Z,44.74
2019-04-11T07:12:42.828Z,44.70
2019-04-11T07:15:20.968Z,44.75
2019-04-11T07:18:07.854Z,44.70
2019-04-11T07:21:02.938Z,44.70
2019-04-11T07:23:51.162Z,44.69
2019-04-11T07:26:27.348Z,44.61
2019-04-11T07:29:27.493Z,44.66
2019-04-11T07:32:17.867Z,44.72
2019-04-11T07:35:04.884Z,44.67
2019-04-11T07:37:36.680Z,44.74
2019-04-11T07:40:27.171Z,44.74
2019-04-11T07:43:19.738Z,44.69
2019-04-11T07:46:11.147Z,44.64
2019-04-11T07:48:42.621Z,44.60
2019-04-11T07:51:40.749Z,44.64
2019-04-11T07:54:15.820Z,44.58
2019-04-11T07:57:08.366Z,44.63
2019-04-11T07:59:50.955Z,44.67
2019-04-11T08:02:37.835Z,44.67
2019-04-11T08:05:44.895Z,44.67
2019-04-11T08:08:34.441Z,44.68
2019-04-11T08:11:15.989Z,44.67
2019-04-11T08:13:54.605Z,44.64
2019-04-11T08:16:55.319Z,44.58
2019-04-11T08:19:42.859Z,44.65
2019-04-11T08:22:30.607Z,44.65
2019-04-11T08:25:13.224Z,44.70
2019-04-11T08:27:54.872Z,44.67
2019-04-11T08:30:19.053Z,44.63
2019-04-11T08:32:51.948Z,43.84
2019-04-11T08:35:51.987Z,43.94
2019-04-11T08:38:32.186Z,45.39
2019-04-11T08:41:23.446Z,43.86
2019-04-11T08:43:53.242Z,44.20
2019-04-11T08:46:26.812Z,44.09
2019-04-11T08:48:59.419Z,44.31
2019-04-11T08:51:29.428Z,44.22
2019-04-11T08:54:19.439Z,43.84
2019-04-11T08:56:49.430Z,43.76
2019-04-11T08:59:47.062Z,43.90
2019-04-11T09:02:20.666Z,44.23
2019-04-11T09:05:19.851Z,43.80
2019-04-11T09:07:56.150Z,43.79
2019-04-11T09:10:42.792Z,43.95
2019-04-11T09:13:31.333Z,43.86
2019-04-11T09:16:18.426Z,43.92
2019-04-11T09:18:47.894Z,43.83
2019-04-11T09:21:34.180Z,43.67
2019-04-11T09:24:06.209Z,43.78
2019-04-11T09:27:06.634Z,43.65
2019-04-11T09:29:39.931Z,43.89
2019-04-11T09:32:27.102Z,43.74
2019-04-11T09:35:06.093Z,43.78
2019-04-11T09:37:37.903Z,43.69
2019-04-11T09:40:27.940Z,43.78
2019-04-11T09:43:16.334Z,43.81
2019-04-11T09:46:08.196Z,44.00
2019-04-11T09:48:48.494Z,43.95
2019-04-11T09:51:31.724Z,43.88
2019-04-11T09:54:05.690Z,43.88
2019-04-11T09:56:54.065Z,43.92
2019-04-11T09:59:29.466Z,43.93
2019-04-11T10:02:08.004Z,43.91
2019-04-11T10:04:37.571Z,43.90
2019-04-11T10:07:19.827Z,43.98
2019-04-11T10:10:14.900Z,44.05
2019-04-11T10:13:02.673Z,43.97
2019-04-11T10:15:54.138Z,43.89
2019-04-11T10:18:42.476Z,43.88
2019-04-11T10:21:13.016Z,43.67
2019-04-11T10:24:15.891Z,43.34
2019-04-11T10:26:48.139Z,43.00
2019-04-11T10:29:36.492Z,42.94
2019-04-11T10:32:06.706Z,42.69
2019-04-11T10:34:54.286Z,42.51
2019-04-11T10:37:23.720Z,42.38
2019-04-11T10:40:01.858Z,42.22
2019-04-11T10:42:32.838Z,42.08
2019-04-11T10:45:24.871Z,41.96
2019-04-11T10:47:57.654Z,41.86
2019-04-11T10:50:52.778Z,41.67
2019-04-11T10:53:24.937Z,41.28
2019-04-11T10:56:10.494Z,41.56
2019-04-11T10:58:44.793Z,41.72
2019-04-11T11:01:31.740Z,41.81
2019-04-11T11:04:23.334Z,41.95
2019-04-11T11:06:55.957Z,42.26
2019-04-11T11:09:47.364Z,42.26
2019-04-11T11:12:32.876Z,42.86
2019-04-11T11:15:11.487Z,42.92
2019-04-11T11:18:43.924Z,42.59
2019-04-11T11:20:53.124Z,42.96
2019-04-11T11:23:37.323Z,43.49
2019-04-11T11:26:26.567Z,43.68
2019-04-11T11:29:15.801Z,43.66
2019-04-11T11:32:07.160Z,43.78
2019-04-11T11:35:05.325Z,43.77
2019-04-11T11:37:47.173Z,43.96
2019-04-11T11:40:38.534Z,44.04
2019-04-11T11:43:30.930Z,43.96
2019-04-11T11:46:26.690Z,44.08
2019-04-11T11:49:02.911Z,44.17
2019-04-11T11:51:54.024Z,43.95
2019-04-11T11:54:35.663Z,44.17
2019-04-11T11:57:15.629Z,44.13
2019-04-11T11:59:50.929Z,44.02
2019-04-11T12:02:42.763Z,44.12
2019-04-11T12:05:27.174Z,44.15
2019-04-11T12:08:11.587Z,44.05
2019-04-11T12:10:43.888Z,44.12
2019-04-11T12:13:41.377Z,44.08
2019-04-11T12:16:21.359Z,44.08
2019-04-11T12:19:02.504Z,44.07
2019-04-11T12:21:34.575Z,43.99
2019-04-11T12:24:20.924Z,44.09
2019-04-11T12:27:21.018Z,43.92
2019-04-11T12:30:07.899Z,43.99
2019-04-11T12:32:40.976Z,43.89
2019-04-11T12:35:36.005Z,43.85
2019-04-11T12:38:11.172Z,43.88
2019-04-11T12:41:08.198Z,43.76
2019-04-11T12:43:56.173Z,43.78
2019-04-11T12:46:43.164Z,43.90
2019-04-11T12:49:28.753Z,43.68
2019-04-11T12:52:15.634Z,43.64
2019-04-11T12:54:45.537Z,43.86
2019-04-11T12:57:32.292Z,43.87
2019-04-11T13:00:11.258Z,43.85
2019-04-11T13:03:11.502Z,43.88
2019-04-11T13:05:41.498Z,43.91
2019-04-11T13:08:28.288Z,43.62
2019-04-11T13:10:57.856Z,42.03
2019-04-11T13:13:42.844Z,42.64
2019-04-11T13:16:14.293Z,43.03
2019-04-11T13:19:02.580Z,43.10
2019-04-11T13:21:48.272Z,43.13
2019-04-11T13:24:54.773Z,43.14
2019-04-11T13:27:34.269Z,43.15
2019-04-11T13:30:21.095Z,43.15
2019-04-11T13:32:55.984Z,43.16
2019-04-11T13:35:42.625Z,43.14
2019-04-11T13:38:24.024Z,43.35
2019-04-11T13:41:20.228Z,43.61
2019-04-11T13:44:14.285Z,43.85
2019-04-11T13:47:02.576Z,44.25
2019-04-11T13:49:41.107Z,45.35
2019-04-11T13:52:29.380Z,44.12
2019-04-11T13:55:02.708Z,45.25
2019-04-11T13:57:56.713Z,43.04
2019-04-11T14:00:44.143Z,43.99
2019-04-11T14:03:44.594Z,44.90
2019-04-11T14:06:27.770Z,45.90
2019-04-11T14:09:24.845Z,46.02
2019-04-11T14:11:55.652Z,45.95
2019-04-11T14:14:29.774Z,45.80
2019-04-11T14:17:04.807Z,45.65
2019-04-11T14:19:50.728Z,45.68
2019-04-11T14:22:25.240Z,45.65
2019-04-11T14:25:03.442Z,45.32
2019-04-11T14:27:32.882Z,45.50
2019-04-11T14:30:18.631Z,45.45
2019-04-11T14:32:48.694Z,44.25
2019-04-11T14:35:35.397Z,44.06
2019-04-11T14:38:12.994Z,44.85
2019-04-11T14:41:01.502Z,45.32
2019-04-11T14:43:26.767Z,44.54
2019-04-11T14:46:24.081Z,44.17
2019-04-11T14:48:59.317Z,44.04
2019-04-11T14:51:58.444Z,43.78
2019-04-11T14:54:33.690Z,43.73
2019-04-11T14:57:07.307Z,44.46
2019-04-11T14:59:54.191Z,43.84
2019-04-11T15:02:40.256Z,43.41
2019-04-11T15:05:16.702Z,43.66
2019-04-11T15:07:46.781Z,43.64
2019-04-11T15:10:40.973Z,43.64
2019-04-11T15:13:12.050Z,43.59
2019-04-11T15:16:06.593Z,43.52
2019-04-11T15:18:39.303Z,43.36
2019-04-11T15:21:42.793Z,43.42
2019-04-11T15:24:12.814Z,43.34
2019-04-11T15:26:59.512Z,43.36
2019-04-11T15:29:31.722Z,43.47
2019-04-11T15:32:22.121Z,43.44
2019-04-11T15:35:03.737Z,43.25
2019-04-11T15:37:54.996Z,43.22
2019-04-11T15:40:33.352Z,43.36
2019-04-11T15:43:30.736Z,43.44
2019-04-11T15:46:17.077Z,43.46
2019-04-11T15:49:05.815Z,43.47
2019-04-11T15:51:57.096Z,43.46
2019-04-11T15:54:45.357Z,43.51
2019-04-11T15:57:33.649Z,43.63
2019-04-11T16:00:28.157Z,45.38
2019-04-11T16:03:14.459Z,46.00
2019-04-11T16:06:05.867Z,45.53
2019-04-11T16:08:52.899Z,45.78
2019-04-11T16:11:53.280Z,46.76
2019-04-11T16:14:37.222Z,46.76
2019-04-11T16:17:28.265Z,47.27
2019-04-11T16:20:03.243Z,46.90
2019-04-11T16:23:00.280Z,46.25
2019-04-11T16:25:29.876Z,45.10
2019-04-11T16:28:16.564Z,44.81
2019-04-11T16:30:56.774Z,45.51
2019-04-11T16:33:51.095Z,45.60
2019-04-11T16:36:37.992Z,45.72
2019-04-11T16:39:33.456Z,45.78
2019-04-11T16:42:04.967Z,45.78
2019-04-11T16:45:02.416Z,45.75
2019-04-11T16:47:53.749Z,45.73
2019-04-11T16:50:23.051Z,45.63
2019-04-11T16:52:52.459Z,45.66
2019-04-11T16:55:21.901Z,45.35
2019-04-11T16:57:51.301Z,45.29
2019-04-11T17:00:21.271Z,45.92
2019-04-11T17:02:54.713Z,45.46
2019-04-11T17:05:24.013Z,45.96
2019-04-11T17:08:20.899Z,45.96
2019-04-11T17:11:19.034Z,45.77
2019-04-11T17:13:48.789Z,45.99
2019-04-11T17:16:19.735Z,45.81
2019-04-11T17:18:49.161Z,46.50
2019-04-11T17:21:18.639Z,46.46
2019-04-11T17:23:48.069Z,45.85
2019-04-11T17:26:17.508Z,45.72
2019-04-11T17:28:46.998Z,45.97
2019-04-11T17:31:16.407Z,45.81
2019-04-11T17:33:45.847Z,45.79
2019-04-11T17:36:15.340Z,45.73
2019-04-11T17:38:45.005Z,45.83
2019-04-11T17:41:14.454Z,45.93
2019-04-11T17:43:46.721Z,45.98
2019-04-11T17:46:15.544Z,45.86
2019-04-11T17:48:44.944Z,45.94
2019-04-11T17:51:14.409Z,45.95
2019-04-11T17:53:43.821Z,45.87
2019-04-11T17:56:13.290Z,45.97
2019-04-11T17:58:42.713Z,45.97
2019-04-11T18:01:12.849Z,45.88
2019-04-11T18:03:42.710Z,45.78
2019-04-11T18:06:12.396Z,45.75
2019-04-11T18:08:41.960Z,45.77
2019-04-11T18:11:11.355Z,45.84
2019-04-11T18:13:41.357Z,45.79
2019-04-11T18:16:10.950Z,45.84
2019-04-11T18:18:40.372Z,45.76
2019-04-11T18:21:09.824Z,45.89
2019-04-11T18:23:39.247Z,45.87
2019-04-11T18:26:08.669Z,45.84
2019-04-11T18:28:38.099Z,45.75
2019-04-11T18:31:07.814Z,45.79
2019-04-11T18:33:37.493Z,45.74
2019-04-11T18:36:06.938Z,45.81
2019-04-11T18:38:36.362Z,45.81
2019-04-11T18:41:05.780Z,45.81
2019-04-11T18:43:35.217Z,45.78
2019-04-11T18:46:05.423Z,45.51
2019-04-11T18:48:34.851Z,45.82
2019-04-11T18:51:04.269Z,45.79
2019-04-11T18:53:33.689Z,45.64
2019-04-11T18:56:03.215Z,45.58
2019-04-11T18:58:34.465Z,45.66
2019-04-11T19:01:08.823Z,45.72
2019-04-11T19:03:36.643Z,45.70
2019-04-11T19:06:06.255Z,45.70
2019-04-11T19:08:35.782Z,46.12
2019-04-11T19:11:05.296Z,46.34
2019-04-11T19:13:34.722Z,46.32
2019-04-11T19:16:04.251Z,46.30
2019-04-11T19:18:33.675Z,46.64
2019-04-11T19:21:03.154Z,46.74
2019-04-11T19:23:32.570Z,46.80
2019-04-11T19:26:01.999Z,46.83
2019-04-11T19:28:31.416Z,46.76
2019-04-11T19:31:00.850Z,46.81
2019-04-11T19:33:34.091Z,46.86
2019-04-11T19:36:01.456Z,46.81
2019-04-11T19:38:33.140Z,46.62
2019-04-11T19:41:02.605Z,46.63
2019-04-11T19:43:32.079Z,46.58
2019-04-11T19:46:01.626Z,46.49
2019-04-11T19:48:31.065Z,46.34
2019-04-11T19:51:00.508Z,46.23
2019-04-11T19:53:32.827Z,46.38
2019-04-11T19:56:10.265Z,46.27
2019-04-11T19:58:39.703Z,46.27
2019-04-11T20:01:09.140Z,46.15
2019-04-11T20:03:38.571Z,46.73
2019-04-11T20:06:08.125Z,46.28
2019-04-11T20:08:37.569Z,46.04
2019-04-11T20:11:07.026Z,46.86
2019-04-11T20:13:36.477Z,47.22
2019-04-11T20:16:05.965Z,47.25
2019-04-11T20:18:35.414Z,47.09
2019-04-11T20:21:07.290Z,47.04
2019-04-11T20:23:36.027Z,46.94
2019-04-11T20:26:05.525Z,46.89
2019-04-11T20:28:34.974Z,46.69
2019-04-11T20:31:04.428Z,46.92
2019-04-11T20:33:34.802Z,46.83
2019-04-11T20:36:08.184Z,46.75
2019-04-11T20:38:38.077Z,46.78
2019-04-11T20:41:07.488Z,46.67
2019-04-11T20:43:37.019Z,46.67
2019-04-11T20:46:06.551Z,46.66
2019-04-11T20:48:36.007Z,46.60
2019-04-11T20:51:05.453Z,46.58
2019-04-11T20:53:37.453Z,46.52
2019-04-11T20:56:09.499Z,46.54
2019-04-11T20:58:39.740Z,46.52
2019-04-11T21:01:08.490Z,46.47
2019-04-11T21:03:37.948Z,46.46
2019-04-11T21:06:07.398Z,46.37
2019-04-11T21:08:36.887Z,46.39
2019-04-11T21:11:06.291Z,46.35
2019-04-11T21:13:38.143Z,46.31
2019-04-11T21:16:06.887Z,46.26
2019-04-11T21:18:36.352Z,46.24
2019-04-11T21:21:05.764Z,46.16
2019-04-11T21:23:35.202Z,46.32
2019-04-11T21:26:04.625Z,46.30
2019-04-11T21:28:34.073Z,46.32
2019-04-11T21:31:03.489Z,46.26
2019-04-11T21:33:34.980Z,46.22
2019-04-11T21:36:04.171Z,46.20
2019-04-11T21:38:33.595Z,46.29
2019-04-11T21:41:05.859Z,46.26
2019-04-11T21:43:36.306Z,46.22
2019-04-11T21:46:06.863Z,46.17
2019-04-11T21:48:36.632Z,46.11
2019-04-11T21:51:06.139Z,46.15
2019-04-11T21:53:36.654Z,46.07
2019-04-11T21:56:06.471Z,45.98
2019-04-11T21:58:35.920Z,45.91
2019-04-11T22:01:09.210Z,46.09
2019-04-11T22:03:38.671Z,46.09
2019-04-11T22:06:08.097Z,46.00
2019-04-11T22:08:37.858Z,45.92
2019-04-11T22:11:09.866Z,45.96
2019-04-11T22:13:40.406Z,45.82
2019-04-11T22:16:13.214Z,45.92
2019-04-11T22:18:40.817Z,45.89
2019-04-11T22:21:10.256Z,45.86
2019-04-11T22:23:48.606Z,46.00
2019-04-11T22:26:10.884Z,45.88
2019-04-11T22:28:40.330Z,45.76
2019-04-11T22:31:09.810Z,45.90
2019-04-11T22:34:01.090Z,45.81
2019-04-11T22:36:30.849Z,45.88
2019-04-11T22:39:01.036Z,45.92
2019-04-11T22:41:31.024Z,45.97
2019-04-11T22:44:00.449Z,45.85
2019-04-11T22:46:29.893Z,45.98
2019-04-11T22:48:59.327Z,45.97
2019-04-11T22:51:28.820Z,45.98
2019-04-11T22:54:00.609Z,45.99
2019-04-11T22:56:29.424Z,45.97
2019-04-11T22:58:58.865Z,45.98
2019-04-11T23:01:28.404Z,45.95
2019-04-11T23:03:59.269Z,45.92
2019-04-11T23:06:28.750Z,45.94
2019-04-11T23:08:58.215Z,45.92
2019-04-11T23:11:27.648Z,45.92
2019-04-11T23:13:57.074Z,45.91
2019-04-11T23:16:26.527Z,46.01
2019-04-11T23:18:55.975Z,46.07
2019-04-11T23:21:25.417Z,46.15
2019-04-11T23:23:54.917Z,46.13
2019-04-11T23:26:24.352Z,46.16
2019-04-11T23:28:53.800Z,46.17
2019-04-11T23:31:23.227Z,46.23
2019-04-11T23:33:52.740Z,46.10
2019-04-11T23:36:22.178Z,46.06
2019-04-11T23:38:52.669Z,46.17
2019-04-11T23:41:22.940Z,46.20
2019-04-11T23:43:52.372Z,46.22
2019-04-11T23:46:22.116Z,46.23
2019-04-11T23:48:54.545Z,46.30
2019-04-11T23:51:25.395Z,46.34
2019-04-11T23:53:53.950Z,46.34
2019-04-11T23:56:23.378Z,46.38
2019-04-11T23:58:52.820Z,46.40
